createdAt,value
2018-12-16T00:00:31.588Z,18.10
2018-12-16T00:02:59.922Z,17.55
2018-12-16T00:05:28.238Z,19.40
2018-12-16T00:07:56.578Z,17.65
2018-12-16T00:10:24.915Z,19.17
2018-12-16T00:12:53.242Z,16.55
2018-12-16T00:15:21.562Z,17.15
2018-12-16T00:17:49.879Z,18.30
2018-12-16T00:20:18.541Z,20.12
2018-12-16T00:22:46.858Z,16.82
2018-12-16T00:25:15.349Z,18.55
2018-12-16T00:27:43.682Z,15.93
2018-12-16T00:30:12.064Z,17.25
2018-12-16T00:32:40.386Z,17.40
2018-12-16T00:35:08.809Z,17.50
2018-12-16T00:37:37.128Z,17.50
2018-12-16T00:40:06.039Z,17.25
2018-12-16T00:42:34.366Z,16.67
2018-12-16T00:45:02.744Z,16.00
2018-12-16T00:47:31.059Z,18.27
2018-12-16T00:49:59.413Z,17.27
2018-12-16T00:52:27.745Z,16.87
2018-12-16T00:54:56.092Z,18.20
2018-12-16T00:57:24.415Z,16.93
2018-12-16T00:59:52.756Z,15.95
2018-12-16T01:02:26.738Z,15.50
2018-12-16T01:04:55.368Z,15.40
2018-12-16T01:07:23.683Z,15.15
2018-12-16T01:09:52.006Z,15.23
2018-12-16T01:12:20.901Z,15.05
2018-12-16T01:14:49.253Z,14.00
2018-12-16T01:17:17.616Z,15.70
2018-12-16T01:19:45.959Z,15.38
2018-12-16T01:22:14.299Z,15.10
2018-12-16T01:24:42.641Z,14.80
2018-12-16T01:27:10.960Z,15.68
2018-12-16T01:29:39.282Z,16.12
2018-12-16T01:32:07.620Z,15.05
2018-12-16T01:34:35.955Z,14.60
2018-12-16T01:37:04.437Z,14.93
2018-12-16T01:39:32.939Z,15.65
2018-12-16T01:42:01.585Z,14.78
2018-12-16T01:44:30.160Z,14.03
2018-12-16T01:46:58.494Z,14.87
2018-12-16T01:49:26.817Z,14.63
2018-12-16T01:51:55.171Z,15.78
2018-12-16T01:54:23.523Z,13.95
2018-12-16T01:56:51.856Z,15.15
2018-12-16T01:59:20.187Z,14.60
2018-12-16T02:01:54.427Z,14.10
2018-12-16T02:04:23.011Z,15.32
2018-12-16T02:06:51.348Z,14.87
2018-12-16T02:09:19.688Z,15.60
2018-12-16T02:11:48.038Z,13.83
2018-12-16T02:14:16.376Z,15.53
2018-12-16T02:16:44.832Z,14.55
2018-12-16T02:19:13.165Z,15.78
2018-12-16T02:21:41.767Z,14.38
2018-12-16T02:24:10.081Z,14.63
2018-12-16T02:26:38.392Z,17.00
2018-12-16T02:29:06.748Z,15.20
2018-12-16T02:31:35.067Z,15.32
2018-12-16T02:34:03.411Z,14.38
2018-12-16T02:36:31.740Z,16.50
2018-12-16T02:39:00.072Z,16.67
2018-12-16T02:41:28.412Z,17.80
2018-12-16T02:43:56.737Z,16.30
2018-12-16T02:46:25.051Z,16.70
2018-12-16T02:48:53.428Z,15.20
2018-12-16T02:51:21.744Z,16.90
2018-12-16T02:53:50.093Z,16.55
2018-12-16T02:56:18.409Z,16.35
2018-12-16T02:58:47.476Z,15.80
2018-12-16T03:01:15.820Z,16.15
2018-12-16T03:03:44.371Z,15.63
2018-12-16T03:06:12.698Z,17.10
2018-12-16T03:08:41.257Z,15.65
2018-12-16T03:11:09.594Z,16.73
2018-12-16T03:13:37.944Z,14.83
2018-12-16T03:16:06.274Z,16.15
2018-12-16T03:18:34.636Z,15.98
2018-12-16T03:21:03.763Z,14.55
2018-12-16T03:23:32.134Z,15.75
2018-12-16T03:26:00.460Z,14.93
2018-12-16T03:28:28.792Z,15.10
2018-12-16T03:30:57.242Z,15.78
2018-12-16T03:33:25.806Z,16.35
2018-12-16T03:35:54.143Z,13.58
2018-12-16T03:38:22.458Z,15.55
2018-12-16T03:40:50.794Z,15.65
2018-12-16T03:43:19.224Z,14.73
2018-12-16T03:45:47.577Z,15.60
2018-12-16T03:48:15.899Z,15.30
2018-12-16T03:50:44.240Z,14.03
2018-12-16T03:53:19.551Z,14.40
2018-12-16T03:55:43.176Z,14.85
2018-12-16T03:58:11.508Z,15.38
2018-12-16T04:00:39.875Z,15.30
2018-12-16T04:03:08.172Z,13.90
2018-12-16T04:05:36.530Z,14.80
2018-12-16T04:08:04.867Z,14.03
2018-12-16T04:10:33.209Z,15.50
2018-12-16T04:13:01.787Z,16.50
2018-12-16T04:15:30.129Z,16.32
2018-12-16T04:17:58.724Z,16.55
2018-12-16T04:20:27.053Z,15.38
2018-12-16T04:22:55.398Z,16.00
2018-12-16T04:25:23.987Z,16.97
2018-12-16T04:27:52.316Z,16.57
2018-12-16T04:30:20.642Z,16.37
2018-12-16T04:32:49.212Z,17.02
2018-12-16T04:35:17.534Z,17.00
2018-12-16T04:37:48.647Z,16.60
2018-12-16T04:40:16.958Z,16.60
2018-12-16T04:42:45.288Z,17.67
2018-12-16T04:45:13.616Z,16.35
2018-12-16T04:47:41.938Z,18.27
2018-12-16T04:50:10.263Z,17.02
2018-12-16T04:52:38.607Z,18.27
2018-12-16T04:55:06.943Z,16.82
2018-12-16T04:57:35.260Z,19.42
2018-12-16T05:00:04.362Z,20.00
2018-12-16T05:02:32.678Z,17.80
2018-12-16T05:05:01.010Z,18.10
2018-12-16T05:07:29.323Z,20.05
2018-12-16T05:09:59.280Z,19.25
2018-12-16T05:12:27.822Z,18.17
2018-12-16T05:14:56.413Z,19.40
2018-12-16T05:17:24.743Z,19.42
2018-12-16T05:19:53.078Z,19.42
2018-12-16T05:22:21.403Z,20.17
2018-12-16T05:24:49.740Z,19.25
2018-12-16T05:27:18.054Z,19.87
2018-12-16T05:29:46.409Z,19.12
2018-12-16T05:32:14.727Z,20.20
2018-12-16T05:34:43.079Z,20.15
2018-12-16T05:37:11.414Z,20.95
2018-12-16T05:39:39.747Z,18.80
2018-12-16T05:42:08.091Z,23.92
2018-12-16T05:44:36.571Z,19.12
2018-12-16T05:47:04.931Z,21.12
2018-12-16T05:49:33.265Z,21.73
2018-12-16T05:52:01.616Z,20.00
2018-12-16T05:54:29.938Z,21.15
2018-12-16T05:56:58.335Z,20.97
2018-12-16T05:59:26.695Z,21.90
2018-12-16T06:01:55.063Z,20.68
2018-12-16T06:04:23.391Z,22.17
2018-12-16T06:06:51.728Z,19.95
2018-12-16T06:09:20.060Z,22.40
2018-12-16T06:11:48.390Z,23.15
2018-12-16T06:14:16.724Z,21.55
2018-12-16T06:16:45.081Z,22.58
2018-12-16T06:19:13.408Z,20.45
2018-12-16T06:21:41.750Z,21.93
2018-12-16T06:24:10.071Z,22.02
2018-12-16T06:26:38.406Z,22.25
2018-12-16T06:29:06.766Z,20.27
2018-12-16T06:31:35.334Z,19.98
2018-12-16T06:34:03.663Z,20.82
2018-12-16T06:36:31.988Z,20.05
2018-12-16T06:39:00.323Z,19.25
2018-12-16T06:41:28.646Z,22.50
2018-12-16T06:43:57.005Z,22.42
2018-12-16T06:46:25.315Z,27.50
2018-12-16T06:48:53.651Z,24.20
2018-12-16T06:51:21.988Z,20.72
2018-12-16T06:53:50.440Z,20.82
2018-12-16T06:56:19.580Z,23.18
2018-12-16T06:58:47.928Z,20.95
2018-12-16T07:01:16.255Z,20.52
2018-12-16T07:03:44.668Z,21.77
2018-12-16T07:06:13.000Z,22.40
2018-12-16T07:08:41.326Z,23.05
2018-12-16T07:11:09.669Z,21.90
2018-12-16T07:13:38.001Z,21.90
2018-12-16T07:16:06.625Z,20.43
2018-12-16T07:18:34.999Z,22.20
2018-12-16T07:21:03.550Z,20.52
2018-12-16T07:23:32.137Z,20.75
2018-12-16T07:26:00.707Z,19.60
2018-12-16T07:28:29.268Z,21.73
2018-12-16T07:30:57.611Z,23.10
2018-12-16T07:33:26.807Z,23.75
2018-12-16T07:35:55.263Z,22.17
2018-12-16T07:38:23.852Z,22.32
2018-12-16T07:40:52.427Z,20.97
2018-12-16T07:43:20.751Z,21.17
2018-12-16T07:45:49.327Z,22.42
2018-12-16T07:48:18.336Z,21.48
2018-12-16T07:50:46.833Z,21.10
2018-12-16T07:53:15.171Z,21.02
2018-12-16T07:55:43.675Z,21.93
2018-12-16T07:58:12.029Z,20.68
2018-12-16T08:00:40.403Z,20.95
2018-12-16T08:03:08.748Z,22.40
2018-12-16T08:05:37.139Z,20.05
2018-12-16T08:08:05.511Z,20.12
2018-12-16T08:10:33.853Z,21.02
2018-12-16T08:13:02.215Z,18.87
2018-12-16T08:15:30.580Z,19.65
2018-12-16T08:17:58.931Z,18.20
2018-12-16T08:20:27.256Z,18.67
2018-12-16T08:22:55.617Z,17.67
2018-12-16T08:25:23.957Z,17.05
2018-12-16T08:27:52.298Z,16.37
2018-12-16T08:30:20.692Z,17.90
2018-12-16T08:32:49.092Z,16.82
2018-12-16T08:35:17.503Z,18.37
2018-12-16T08:37:45.868Z,17.12
2018-12-16T08:40:14.189Z,18.50
2018-12-16T08:42:42.555Z,19.37
2018-12-16T08:45:10.915Z,17.27
2018-12-16T08:47:39.513Z,18.12
2018-12-16T08:50:07.912Z,17.85
2018-12-16T08:52:36.246Z,15.40
2018-12-16T08:55:04.626Z,17.55
2018-12-16T08:57:32.985Z,14.65
2018-12-16T09:00:01.313Z,16.07
2018-12-16T09:02:29.672Z,16.00
2018-12-16T09:04:58.007Z,17.12
2018-12-16T09:07:26.331Z,14.40
2018-12-16T09:09:54.697Z,15.18
2018-12-16T09:12:22.755Z,13.80
2018-12-16T09:14:51.085Z,13.40
2018-12-16T09:17:19.123Z,14.03
2018-12-16T09:19:47.180Z,14.50
2018-12-16T09:22:15.234Z,13.60
2018-12-16T09:24:43.285Z,12.40
2018-12-16T09:27:11.343Z,12.77
2018-12-16T09:29:39.478Z,12.73
2018-12-16T09:32:07.548Z,11.67
2018-12-16T09:34:35.619Z,12.10
2018-12-16T09:37:03.679Z,12.17
2018-12-16T09:39:31.722Z,12.63
2018-12-16T09:41:59.756Z,11.73
2018-12-16T09:44:27.819Z,12.80
2018-12-16T09:46:55.893Z,12.00
2018-12-16T09:49:23.978Z,12.47
2018-12-16T09:51:52.039Z,10.17
2018-12-16T09:54:20.079Z,9.30
2018-12-16T09:56:48.176Z,10.40
2018-12-16T09:59:16.265Z,9.30
2018-12-16T10:01:44.615Z,9.57
2018-12-16T10:04:12.779Z,10.50
2018-12-16T10:06:40.888Z,12.13
2018-12-16T10:09:08.958Z,11.07
2018-12-16T10:11:37.072Z,10.40
2018-12-16T10:14:05.201Z,9.93
2018-12-16T10:16:33.267Z,9.17
2018-12-16T10:19:01.554Z,9.93
2018-12-16T10:21:29.658Z,9.17
2018-12-16T10:23:57.695Z,10.17
2018-12-16T10:26:25.837Z,8.53
2018-12-16T10:28:53.859Z,10.37
2018-12-16T10:31:21.948Z,8.70
2018-12-16T10:33:50.026Z,10.30
2018-12-16T10:36:18.088Z,10.20
2018-12-16T10:38:46.145Z,10.57
2018-12-16T10:41:14.187Z,9.80
2018-12-16T10:43:42.246Z,9.10
2018-12-16T10:46:10.306Z,8.87
2018-12-16T10:48:38.381Z,10.23
2018-12-16T10:51:06.436Z,9.93
2018-12-16T10:53:34.489Z,10.33
2018-12-16T10:56:02.523Z,10.37
2018-12-16T10:58:30.596Z,9.83
2018-12-16T11:01:04.358Z,9.57
2018-12-16T11:03:32.427Z,11.03
2018-12-16T11:06:00.473Z,10.77
2018-12-16T11:08:28.705Z,10.10
2018-12-16T11:10:56.752Z,10.87
2018-12-16T11:13:24.827Z,10.77
2018-12-16T11:15:52.875Z,10.37
2018-12-16T11:18:20.920Z,9.37
2018-12-16T11:20:48.992Z,9.50
2018-12-16T11:23:17.033Z,9.30
2018-12-16T11:25:45.165Z,9.23
2018-12-16T11:28:13.834Z,8.80
2018-12-16T11:30:41.871Z,9.57
2018-12-16T11:33:09.902Z,8.97
2018-12-16T11:35:37.967Z,8.40
2018-12-16T11:38:06.019Z,8.70
2018-12-16T11:40:34.090Z,8.80
2018-12-16T11:43:02.131Z,10.80
2018-12-16T11:45:30.198Z,11.30
2018-12-16T11:47:58.319Z,11.00
2018-12-16T11:50:26.398Z,10.90
2018-12-16T11:52:54.447Z,9.70
2018-12-16T11:55:22.509Z,7.13
2018-12-16T11:57:50.556Z,8.37
2018-12-16T12:00:18.629Z,8.83
2018-12-16T12:02:46.680Z,8.60
2018-12-16T12:05:14.714Z,7.70
2018-12-16T12:07:42.814Z,7.17
2018-12-16T12:10:10.922Z,8.63
2018-12-16T12:12:38.979Z,7.10
2018-12-16T12:15:07.024Z,8.33
2018-12-16T12:17:35.071Z,7.23
2018-12-16T12:20:03.407Z,6.97
2018-12-16T12:22:31.498Z,7.00
2018-12-16T12:24:59.536Z,7.80
2018-12-16T12:27:27.605Z,8.57
2018-12-16T12:29:55.673Z,6.80
2018-12-16T12:32:23.739Z,7.40
2018-12-16T12:34:51.786Z,7.67
2018-12-16T12:37:20.093Z,7.10
2018-12-16T12:39:48.146Z,7.50
2018-12-16T12:42:16.233Z,7.07
2018-12-16T12:44:44.281Z,8.03
2018-12-16T12:47:12.341Z,7.10
2018-12-16T12:49:44.967Z,7.00
2018-12-16T12:52:10.513Z,7.27
2018-12-16T12:54:38.987Z,6.63
2018-12-16T12:57:07.044Z,5.50
2018-12-16T12:59:35.096Z,5.40
2018-12-16T13:02:03.673Z,5.20
2018-12-16T13:04:32.054Z,4.97
2018-12-16T13:07:00.105Z,4.50
2018-12-16T13:09:28.164Z,4.10
2018-12-16T13:11:57.094Z,3.63
2018-12-16T13:14:25.532Z,4.47
2018-12-16T13:16:53.588Z,4.30
2018-12-16T13:19:21.671Z,3.53
2018-12-16T13:21:49.738Z,3.37
2018-12-16T13:24:17.788Z,4.63
2018-12-16T13:26:46.184Z,4.40
2018-12-16T13:29:14.239Z,15.00
2018-12-16T13:31:42.278Z,18.10
2018-12-16T13:34:10.359Z,21.53
2018-12-16T13:36:38.424Z,23.50
2018-12-16T13:39:06.589Z,22.50
2018-12-16T13:41:34.627Z,21.97
2018-12-16T13:44:02.704Z,20.23
2018-12-16T13:46:30.766Z,15.00
2018-12-16T13:48:58.819Z,15.03
2018-12-16T13:51:26.896Z,19.23
2018-12-16T13:53:54.957Z,21.73
2018-12-16T13:56:23.008Z,23.20
2018-12-16T13:58:51.042Z,23.30
2018-12-16T14:01:19.113Z,24.70
2018-12-16T14:03:47.154Z,24.50
2018-12-16T14:06:15.220Z,24.10
2018-12-16T14:08:43.274Z,24.90
2018-12-16T14:11:11.393Z,23.23
2018-12-16T14:13:39.712Z,22.57
2018-12-16T14:16:07.841Z,24.13
2018-12-16T14:18:35.897Z,24.60
2018-12-16T14:21:03.946Z,23.20
2018-12-16T14:23:32.092Z,22.37
2018-12-16T14:26:00.131Z,22.60
2018-12-16T14:28:28.218Z,24.80
2018-12-16T14:30:56.262Z,21.80
2018-12-16T14:33:24.333Z,24.20
2018-12-16T14:35:52.407Z,25.57
2018-12-16T14:38:20.440Z,23.23
2018-12-16T14:40:48.513Z,25.57
2018-12-16T14:43:16.598Z,24.13
2018-12-16T14:45:44.656Z,25.00
2018-12-16T14:48:12.754Z,26.17
2018-12-16T14:50:40.798Z,24.37
2018-12-16T14:53:08.874Z,35.07
2018-12-16T14:55:37.373Z,36.50
2018-12-16T14:58:05.509Z,56.97
2018-12-16T15:00:33.799Z,50.20
2018-12-16T15:03:01.869Z,50.80
2018-12-16T15:05:29.961Z,29.90
2018-12-16T15:07:57.986Z,26.00
2018-12-16T15:10:26.086Z,26.30
2018-12-16T15:12:54.142Z,26.87
2018-12-16T15:15:22.430Z,29.90
2018-12-16T15:17:50.476Z,28.33
2018-12-16T15:20:18.587Z,27.90
2018-12-16T15:22:46.665Z,29.30
2018-12-16T15:25:14.731Z,27.80
2018-12-16T15:27:42.789Z,26.13
2018-12-16T15:30:10.924Z,26.13
2018-12-16T15:32:38.960Z,26.40
2018-12-16T15:35:07.027Z,27.40
2018-12-16T15:37:35.095Z,28.47
2018-12-16T15:40:03.519Z,27.27
2018-12-16T15:42:31.569Z,30.23
2018-12-16T15:44:59.632Z,27.30
2018-12-16T15:47:27.786Z,28.80
2018-12-16T15:49:55.882Z,25.70
2018-12-16T15:52:23.926Z,28.27
2018-12-16T15:54:52.022Z,27.60
2018-12-16T15:57:20.208Z,28.43
2018-12-16T15:59:48.277Z,27.50
2018-12-16T16:02:16.364Z,29.20
2018-12-16T16:04:44.420Z,34.70
2018-12-16T16:07:12.509Z,29.93
2018-12-16T16:09:40.591Z,28.50
2018-12-16T16:12:08.663Z,27.97
2018-12-16T16:14:36.709Z,27.37
2018-12-16T16:17:04.791Z,26.53
2018-12-16T16:19:32.827Z,25.30
2018-12-16T16:22:00.904Z,26.50
2018-12-16T16:24:28.980Z,26.20
2018-12-16T16:26:57.043Z,25.73
2018-12-16T16:29:25.130Z,26.60
2018-12-16T16:31:53.192Z,25.03
2018-12-16T16:34:21.246Z,27.40
2018-12-16T16:36:49.324Z,25.83
2018-12-16T16:39:17.404Z,27.90
2018-12-16T16:41:45.467Z,24.43
2018-12-16T16:44:14.406Z,26.57
2018-12-16T16:46:42.754Z,25.67
2018-12-16T16:49:10.835Z,24.27
2018-12-16T16:51:39.623Z,22.00
2018-12-16T16:54:07.889Z,23.00
2018-12-16T16:56:35.947Z,24.73
2018-12-16T16:59:04.035Z,25.90
2018-12-16T17:01:32.069Z,26.10
2018-12-16T17:04:00.243Z,27.43
2018-12-16T17:06:28.300Z,29.03
2018-12-16T17:08:56.411Z,27.10
2018-12-16T17:11:25.179Z,28.60
2018-12-16T17:13:53.823Z,28.80
2018-12-16T17:16:21.878Z,29.97
2018-12-16T17:18:50.367Z,28.07
2018-12-16T17:21:18.449Z,28.93
2018-12-16T17:23:46.507Z,30.20
2018-12-16T17:26:14.649Z,28.87
2018-12-16T17:28:42.763Z,28.97
2018-12-16T17:31:10.866Z,23.23
2018-12-16T17:33:38.906Z,25.53
2018-12-16T17:36:07.052Z,25.80
2018-12-16T17:38:35.121Z,28.63
2018-12-16T17:41:03.212Z,29.20
2018-12-16T17:43:31.255Z,27.97
2018-12-16T17:45:59.334Z,26.50
2018-12-16T17:48:27.438Z,29.10
2018-12-16T17:50:55.503Z,29.50
2018-12-16T17:53:23.542Z,27.97
2018-12-16T17:55:51.608Z,30.23
2018-12-16T17:58:19.652Z,28.97
2018-12-16T18:00:47.746Z,27.17
2018-12-16T18:03:15.810Z,26.50
2018-12-16T18:05:43.873Z,23.60
2018-12-16T18:08:11.949Z,24.67
2018-12-16T18:10:40.033Z,25.13
2018-12-16T18:13:08.411Z,24.55
2018-12-16T18:15:36.757Z,26.68
2018-12-16T18:18:05.108Z,25.23
2018-12-16T18:20:33.480Z,24.95
2018-12-16T18:23:01.806Z,24.25
2018-12-16T18:25:30.140Z,24.18
2018-12-16T18:27:58.501Z,25.30
2018-12-16T18:30:26.823Z,24.80
2018-12-16T18:32:55.722Z,25.77
2018-12-16T18:35:23.868Z,25.90
2018-12-16T18:37:52.468Z,26.27
2018-12-16T18:40:20.830Z,24.18
2018-12-16T18:42:49.208Z,25.62
2018-12-16T18:45:17.266Z,25.33
2018-12-16T18:47:45.644Z,24.32
2018-12-16T18:50:13.994Z,25.20
2018-12-16T18:52:42.357Z,25.65
2018-12-16T18:55:10.708Z,23.83
2018-12-16T18:57:38.808Z,25.73
2018-12-16T19:00:09.264Z,24.77
2018-12-16T19:02:37.602Z,23.98
2018-12-16T19:05:05.844Z,22.90
2018-12-16T19:07:34.234Z,23.12
2018-12-16T19:10:02.310Z,21.93
2018-12-16T19:12:30.351Z,22.83
2018-12-16T19:14:58.703Z,20.17
2018-12-16T19:17:26.743Z,20.53
2018-12-16T19:19:54.808Z,17.40
2018-12-16T19:22:22.859Z,18.43
2018-12-16T19:24:50.938Z,16.90
2018-12-16T19:27:19.707Z,18.83
2018-12-16T19:29:47.787Z,18.00
2018-12-16T19:32:15.870Z,17.13
2018-12-16T19:34:43.932Z,15.43
2018-12-16T19:37:11.980Z,14.57
2018-12-16T19:39:40.071Z,14.60
2018-12-16T19:42:08.163Z,15.13
2018-12-16T19:44:36.220Z,15.40
2018-12-16T19:47:04.291Z,14.67
2018-12-16T19:49:32.338Z,16.57
2018-12-16T19:52:00.412Z,15.77
2018-12-16T19:54:28.738Z,15.80
2018-12-16T19:56:56.897Z,20.27
2018-12-16T19:59:25.078Z,27.43
2018-12-16T20:01:53.201Z,25.53
2018-12-16T20:04:21.458Z,27.47
2018-12-16T20:06:49.549Z,27.23
2018-12-16T20:09:17.632Z,25.70
2018-12-16T20:11:45.813Z,25.87
2018-12-16T20:14:13.866Z,24.90
2018-12-16T20:16:42.619Z,25.17
2018-12-16T20:19:10.695Z,26.70
2018-12-16T20:21:40.302Z,22.83
2018-12-16T20:24:08.940Z,16.17
2018-12-16T20:26:37.627Z,18.70
2018-12-16T20:29:06.312Z,14.40
2018-12-16T20:31:34.767Z,13.60
2018-12-16T20:34:03.479Z,24.97
2018-12-16T20:36:31.516Z,19.23
2018-12-16T20:38:59.678Z,20.43
2018-12-16T20:41:28.662Z,21.83
2018-12-16T20:43:56.901Z,24.30
2018-12-16T20:46:24.967Z,25.87
2018-12-16T20:48:53.143Z,25.00
2018-12-16T20:51:21.209Z,21.47
2018-12-16T20:53:49.280Z,18.00
2018-12-16T20:56:17.675Z,14.90
2018-12-16T20:58:46.268Z,14.00
2018-12-16T21:01:14.375Z,15.60
2018-12-16T21:03:43.661Z,16.90
2018-12-16T21:06:11.831Z,14.90
2018-12-16T21:08:39.985Z,15.00
2018-12-16T21:11:13.513Z,15.20
2018-12-16T21:13:47.130Z,16.00
2018-12-16T21:16:21.106Z,15.30
2018-12-16T21:18:49.237Z,14.73
2018-12-16T21:21:17.344Z,16.27
2018-12-16T21:23:45.460Z,15.43
2018-12-16T21:26:13.595Z,16.37
2018-12-16T21:28:41.656Z,15.13
2018-12-16T21:31:09.712Z,14.90
2018-12-16T21:33:37.768Z,15.23
2018-12-16T21:36:05.884Z,14.93
2018-12-16T21:38:33.946Z,16.17
2018-12-16T21:41:02.120Z,27.90
2018-12-16T21:43:30.168Z,19.03
2018-12-16T21:45:58.279Z,20.63
2018-12-16T21:48:26.365Z,19.20
2018-12-16T21:50:54.948Z,20.40
2018-12-16T21:53:22.996Z,19.40
2018-12-16T21:55:51.555Z,17.43
2018-12-16T21:58:19.759Z,14.70
2018-12-16T22:00:48.438Z,15.83
2018-12-16T22:03:16.553Z,15.90
2018-12-16T22:05:44.692Z,15.87
2018-12-16T22:08:12.726Z,15.23
2018-12-16T22:10:40.812Z,14.40
2018-12-16T22:13:08.853Z,15.63
2018-12-16T22:15:36.906Z,15.80
2018-12-16T22:18:04.978Z,15.73
2018-12-16T22:20:33.019Z,15.63
2018-12-16T22:23:01.934Z,15.13
2018-12-16T22:25:30.500Z,16.03
2018-12-16T22:27:59.298Z,13.80
2018-12-16T22:30:27.855Z,14.47
2018-12-16T22:32:55.913Z,14.80
2018-12-16T22:35:23.963Z,16.07
2018-12-16T22:37:52.838Z,15.40
2018-12-16T22:40:20.893Z,14.63
2018-12-16T22:42:49.082Z,14.60
2018-12-16T22:45:17.133Z,14.93
2018-12-16T22:47:45.302Z,14.47
2018-12-16T22:50:13.422Z,14.23
2018-12-16T22:52:41.455Z,14.40
2018-12-16T22:55:09.508Z,14.87
2018-12-16T22:57:38.451Z,14.25
2018-12-16T23:00:08.729Z,14.47
2018-12-16T23:02:36.774Z,13.47
2018-12-16T23:05:05.495Z,14.20
2018-12-16T23:07:33.942Z,13.87
2018-12-16T23:10:02.055Z,14.67
2018-12-16T23:12:31.872Z,14.80
2018-12-16T23:14:59.932Z,13.50
2018-12-16T23:17:28.846Z,13.10
2018-12-16T23:20:02.527Z,13.70
2018-12-16T23:22:30.571Z,14.20
2018-12-16T23:24:58.895Z,15.30
2018-12-16T23:27:26.935Z,15.30
2018-12-16T23:29:54.999Z,15.97
2018-12-16T23:32:23.058Z,15.30
2018-12-16T23:34:51.108Z,16.60
2018-12-16T23:37:19.251Z,16.53
2018-12-16T23:39:47.309Z,14.90
2018-12-16T23:42:15.362Z,14.60
2018-12-16T23:44:43.425Z,15.20
2018-12-16T23:47:11.478Z,15.70
2018-12-16T23:49:39.638Z,15.80
2018-12-16T23:52:07.699Z,15.57
2018-12-16T23:54:35.765Z,15.90
2018-12-16T23:57:04.153Z,15.10
2018-12-16T23:59:33.012Z,16.30
